Estación Meteorológica Peña el Pijo (Robertgarden) [ 07/20/18 16:41:59 CEST ]

Fecha Hora Presion(HPa) Temp (°C) Humedad % Rocio (°C) Viento ( m/s) Direccion Lluvia 1Hora(mm) Lluvia 24H(mm) LLuvia Total(mm)
2018-Jan-03 01:01:55 1021.100 4.4 78 0.9         27.97
2018-Jan-03 02:02:31 1020.600 4.1 79 0.8         27.97
2018-Jan-03 03:02:27 1020.300 5.0 80 1.8         27.97
2018-Jan-03 04:02:08 1020.300 4.5 81 1.5         27.97
2018-Jan-03 05:05:11 1020.300 3.3 82 0.5         27.97
2018-Jan-03 06:01:31 1019.900 3.0 83 0.4         27.97
2018-Jan-03 07:01:45 1020.600 4.4 84 1.9         27.97
2018-Jan-03 08:01:47 1020.500 4.6 85 2.3         27.97
2018-Jan-03 09:01:26 1020.800 4.1 85 1.8         27.97
2018-Jan-03 10:01:29 1020.800 9.5 86 7.1         27.97
2018-Jan-03 11:01:55 1021.700 15.1 70 9.7         27.97
2018-Jan-03 12:01:42 1021.300 17.3 55 8.1         27.97
2018-Jan-03 13:01:58 1020.500 18.3 49 7.4         27.97
2018-Jan-03 14:01:34 1019.700 19.3 44 6.7         27.97
2018-Jan-03 15:01:24 1019.100 19.9 41 6.2         27.97
2018-Jan-03 16:01:48 1018.900 19.1 41 5.5         27.97
2018-Jan-03 17:01:42 1019.400 15.6 49 4.9         27.97
2018-Jan-03 18:01:33 1019.300 13.4 56 4.8 1.5 NW     27.97
2018-Jan-03 19:01:52 1019.700 11.1 62 4.0         27.97
2018-Jan-03 20:01:50 1019.900 10.0 67 4.1         27.97
2018-Jan-03 21:01:47 1019.800 8.9 71 3.9         27.97
2018-Jan-03 22:01:46 1019.700 8.0 74 3.7         27.97
2018-Jan-03 23:01:54 1019.900 6.7 76 2.8         27.97

Temperatura Máxima:19°    Temperatura Mínima:
Presión Máxima:1021.700 Hpa    Presión Mínima:1018.900 Hpa


Volver